Time;durP1;ratioP1;P1;durP2;ratioP2;P2;SDS_P1;SDS_P2;PMS_P1;PMS_P2;Temp;Humidity;BMP_temperature;BMP_pressure;BME280_temperature;BME280_humidity;BME280_pressure;Samples;Min_cycle;Max_cycle;Signal;HPM_P1;HPM_P2
2022/07/29 00:00:45;;;;;;;;;;;;;;;26.27;42.60;99549.16;2108970;28;19915;-44
2022/07/29 00:01:45;;;;;;;;;;;;;;;26.27;42.56;99541.72;2106236;28;20464;-43
2022/07/29 00:02:46;;;;;;;;;;;;;;;26.27;42.32;99549.16;2097436;28;20373;-43
2022/07/29 00:03:46;;;;;;;;;;;;;;;26.27;42.30;99550.00;2090184;28;19952;-43
2022/07/29 00:04:47;;;;;;;;;;;;;;;26.27;42.61;99543.63;2098557;28;19912;-44
2022/07/29 00:05:47;;;;;;;;;;;;;;;26.27;42.55;99543.63;2109816;28;19919;-42
2022/07/29 00:06:47;;;;;;;;;;;;;;;26.26;42.49;99542.78;2105373;28;19916;-43
2022/07/29 00:07:48;;;;;;;;;;;;;;;26.26;42.42;99548.31;2108243;28;19953;-42
2022/07/29 00:08:48;;;;;;;;;;;;;;;26.26;42.35;99541.91;2110092;28;20485;-43
2022/07/29 00:09:48;;;;;;;;;;;;;;;26.26;42.44;99544.66;2109844;27;20259;-46
2022/07/29 00:10:49;;;;;;;;;;;;;;;26.25;42.42;99540.22;2108314;28;19964;-43
2022/07/29 00:11:49;;;;;;;;;;;;;;;26.24;42.54;99550.44;2098183;28;20782;-43
2022/07/29 00:12:49;;;;;;;;;;;;;;;26.24;42.76;99544.06;2098456;28;19908;-43
2022/07/29 00:13:50;;;;;;;;;;;;;;;26.24;42.58;99544.06;2108446;28;19919;-43
2022/07/29 00:14:50;;;;;;;;;;;;;;;26.24;42.47;99544.06;2103185;27;19989;-44
2022/07/29 00:15:50;;;;;;;;;;;;;;;26.23;42.50;99543.19;2095136;28;20390;-44
2022/07/29 00:16:51;;;;;;;;;;;;;;;26.23;42.55;99542.34;2093943;28;19916;-43
2022/07/29 00:17:51;;;;;;;;;;;;;;;26.24;42.76;99538.53;2097378;28;19915;-45
2022/07/29 00:18:51;;;;;;;;;;;;;;;26.24;42.50;99538.53;2098810;28;19920;-43
2022/07/29 00:19:52;;;;;;;;;;;;;;;26.23;42.50;99536.81;2094114;28;19916;-44
2022/07/29 00:20:52;;;;;;;;;;;;;;;26.23;42.64;99543.19;2093565;28;19973;-43
2022/07/29 00:21:52;;;;;;;;;;;;;;;26.23;42.75;99536.81;2099949;28;19975;-43
2022/07/29 00:22:53;;;;;;;;;;;;;;;26.24;42.64;99544.06;2095000;28;20146;-45
2022/07/29 00:23:53;;;;;;;;;;;;;;;26.24;42.48;99541.28;2092823;28;20202;-43
2022/07/29 00:24:53;;;;;;;;;;;;;;;26.23;42.48;99536.81;2101109;28;20395;-44
2022/07/29 00:25:53;;;;;;;;;;;;;;;26.23;42.77;99543.19;2097186;28;20289;-43
2022/07/29 00:26:54;;;;;;;;;;;;;;;26.24;42.51;99535.78;2092013;28;20009;-44
2022/07/29 00:27:54;;;;;;;;;;;;;;;26.24;42.55;99539.38;2085815;28;19916;-47
2022/07/29 00:28:55;;;;;;;;;;;;;;;26.24;42.74;99538.53;2088333;28;19922;-43
2022/07/29 00:29:55;;;;;;;;;;;;;;;26.23;42.77;99540.41;2095351;28;19912;-43
2022/07/29 00:30:56;;;;;;;;;;;;;;;26.23;42.57;99528.53;2092711;28;19924;-44
2022/07/29 00:31:56;;;;;;;;;;;;;;;26.24;42.69;99530.25;2091160;28;19920;-43
2022/07/29 00:32:56;;;;;;;;;;;;;;;26.24;42.66;99527.47;2087231;28;20631;-43
2022/07/29 00:33:56;;;;;;;;;;;;;;;26.24;42.72;99522.81;2088969;28;20150;-43
2022/07/29 00:36:15;;;;;;;;;;;;;;;26.23;42.51;99521.09;2092942;28;19916;-43
2022/07/29 00:37:16;;;;;;;;;;;;;;;26.23;42.71;99529.38;2093401;28;19916;-43
2022/07/29 00:38:18;;;;;;;;;;;;;;;26.24;42.77;99527.47;2085933;28;19909;-44
2022/07/29 00:39:18;;;;;;;;;;;;;;;26.23;42.55;99526.59;2088323;28;19920;-46
2022/07/29 00:40:18;;;;;;;;;;;;;;;26.24;42.63;99521.97;2087777;28;19966;-44
2022/07/29 00:41:19;;;;;;;;;;;;;;;26.24;42.44;99533.84;2086926;28;19967;-43
2022/07/29 00:42:19;;;;;;;;;;;;;;;26.24;42.42;99530.25;2083080;28;19916;-44
2022/07/29 00:43:20;;;;;;;;;;;;;;;26.24;42.55;99530.25;2085983;28;20202;-43
2022/07/29 00:44:21;;;;;;;;;;;;;;;26.23;42.70;99525.75;2093607;28;19912;-43
2022/07/29 00:45:24;;;;;;;;;;;;;;;26.23;42.79;99532.13;2091697;28;20360;-43
2022/07/29 00:46:24;;;;;;;;;;;;;;;26.24;42.72;99527.47;2087780;28;19916;-43
2022/07/29 00:47:24;;;;;;;;;;;;;;;26.23;42.56;99531.28;2093473;28;19979;-45
2022/07/29 00:48:24;;;;;;;;;;;;;;;26.23;42.59;99540.41;2092043;28;19920;-44
2022/07/29 00:49:25;;;;;;;;;;;;;;;26.24;42.56;99538.53;2087415;28;20358;-44
2022/07/29 00:50:25;;;;;;;;;;;;;;;26.24;42.52;99538.53;2093366;28;20681;-44
2022/07/29 00:51:26;;;;;;;;;;;;;;;26.23;42.67;99531.28;2092380;28;20007;-45
2022/07/29 00:52:26;;;;;;;;;;;;;;;26.23;42.85;99532.13;2086689;28;20324;-43
2022/07/29 00:53:27;;;;;;;;;;;;;;;26.22;42.51;99524.91;2093185;28;20559;-43
2022/07/29 00:54:28;;;;;;;;;;;;;;;26.23;42.60;99534.06;2091228;28;19916;-44
2022/07/29 00:55:29;;;;;;;;;;;;;;;26.22;42.54;99529.59;2092744;28;20863;-44
2022/07/29 00:56:30;;;;;;;;;;;;;;;26.22;42.62;99524.06;2083726;28;19909;-44
2022/07/29 00:57:30;;;;;;;;;;;;;;;26.21;42.60;99520.47;2082509;28;19920;-43
2022/07/29 00:58:31;;;;;;;;;;;;;;;26.21;42.64;99528.75;2088868;28;19962;-45
2022/07/29 00:59:31;;;;;;;;;;;;;;;26.21;42.71;99530.66;2090807;28;20011;-44
2022/07/29 01:00:31;;;;;;;;;;;;;;;26.20;42.66;99526.19;2094607;28;19955;-45
2022/07/29 01:01:32;;;;;;;;;;;;;;;26.21;42.65;99522.34;2093246;28;19918;-43
2022/07/29 01:02:32;;;;;;;;;;;;;;;26.21;42.95;99528.75;2093420;28;20593;-44
2022/07/29 01:03:32;;;;;;;;;;;;;;;26.19;42.67;99519.81;2093483;28;19908;-43
2022/07/29 01:04:33;;;;;;;;;;;;;;;26.20;42.73;99515.16;2090824;28;19908;-46
2022/07/29 01:05:34;;;;;;;;;;;;;;;26.20;42.93;99509.63;2085936;28;20270;-45
2022/07/29 01:06:34;;;;;;;;;;;;;;;26.20;42.73;99515.16;2090778;28;19978;-44
2022/07/29 01:07:36;;;;;;;;;;;;;;;26.19;42.73;99505.13;2088080;28;19934;-43
2022/07/29 01:08:37;;;;;;;;;;;;;;;26.19;42.73;99502.38;2089018;28;19913;-45
2022/07/29 01:09:38;;;;;;;;;;;;;;;26.19;42.68;99499.63;2091350;28;20525;-44
2022/07/29 01:10:39;;;;;;;;;;;;;;;26.19;42.98;99502.38;2093223;28;19999;-43
2022/07/29 01:11:40;;;;;;;;;;;;;;;26.20;42.84;99506.84;2091903;28;20269;-44
2022/07/29 01:12:43;;;;;;;;;;;;;;;26.20;42.94;99512.38;2093740;28;20185;-44
2022/07/29 01:13:44;;;;;;;;;;;;;;;26.19;42.68;99513.41;2092694;28;19915;-43
2022/07/29 01:14:45;;;;;;;;;;;;;;;26.20;42.87;99509.63;2091233;28;19920;-44
2022/07/29 01:15:56;;;;;;;;;;;;;;;26.21;42.65;99505.78;2094227;28;20369;-44
2022/07/29 01:17:02;;;;;;;;;;;;;;;26.20;42.86;99509.63;2088801;28;20214;-44
2022/07/29 01:18:03;;;;;;;;;;;;;;;26.20;42.61;99506.84;2090248;28;19916;-44
2022/07/29 01:19:12;;;;;;;;;;;;;;;26.21;42.87;99508.53;2094479;28;19915;-44
2022/07/29 01:20:17;;;;;;;;;;;;;;;26.21;42.83;99511.31;2090868;28;20174;-44
2022/07/29 01:21:25;;;;;;;;;;;;;;;26.20;42.64;99506.84;2093369;28;19911;-45
2022/07/29 01:22:28;;;;;;;;;;;;;;;26.21;42.93;99505.78;2090067;28;20207;-43
2022/07/29 01:23:39;;;;;;;;;;;;;;;26.21;42.92;99511.31;2092617;28;19962;-44
2022/07/29 01:25:00;;;;;;;;;;;;;;;26.21;42.90;99505.78;2090514;28;20306;-44
2022/07/29 01:26:11;;;;;;;;;;;;;;;26.20;42.63;99507.69;2074362;28;20256;-43
2022/07/29 01:27:19;;;;;;;;;;;;;;;26.21;42.66;99516.84;2094215;28;19917;-44
2022/07/29 01:28:31;;;;;;;;;;;;;;;26.21;42.88;99519.59;2091098;28;19983;-49
2022/07/29 01:29:36;;;;;;;;;;;;;;;26.20;42.67;99515.16;2094067;28;20003;-44
2022/07/29 01:30:38;;;;;;;;;;;;;;;26.20;42.88;99520.66;2093379;28;19917;-43
2022/07/29 01:31:51;;;;;;;;;;;;;;;26.21;42.92;99517.72;2092293;28;20502;-43
2022/07/29 01:32:54;;;;;;;;;;;;;;;26.21;42.67;99519.59;2082149;28;20343;-44
2022/07/29 01:33:57;;;;;;;;;;;;;;;26.20;42.80;99515.16;2083741;28;19916;-44
2022/07/29 01:35:02;;;;;;;;;;;;;;;26.21;42.96;99511.31;2092190;28;19975;-44
2022/07/29 01:36:07;;;;;;;;;;;;;;;26.20;42.79;99504.09;2090960;28;20011;-45
2022/07/29 01:37:15;;;;;;;;;;;;;;;26.19;43.01;99500.50;2092609;28;20002;-43
2022/07/29 01:38:20;;;;;;;;;;;;;;;26.19;42.97;99496.84;2091237;28;19916;-45
2022/07/29 01:39:26;;;;;;;;;;;;;;;26.19;42.75;99503.25;2090012;28;20230;-43
2022/07/29 01:40:30;;;;;;;;;;;;;;;26.17;42.86;99499.00;2087881;28;19954;-43
2022/07/29 01:41:32;;;;;;;;;;;;;;;26.17;42.86;99499.00;2089719;28;20588;-43
2022/07/29 01:42:38;;;;;;;;;;;;;;;26.17;42.83;99501.75;2088558;28;19908;-44
2022/07/29 01:43:44;;;;;;;;;;;;;;;26.17;42.97;99499.00;2093746;28;20418;-44
2022/07/29 01:44:56;;;;;;;;;;;;;;;26.17;42.85;99497.09;2092559;28;19922;-44
2022/07/29 01:46:00;;;;;;;;;;;;;;;26.16;42.85;99491.75;2093284;28;20781;-43
2022/07/29 01:47:04;;;;;;;;;;;;;;;26.16;43.15;99492.59;2093443;28;19984;-44
2022/07/29 01:48:10;;;;;;;;;;;;;;;26.15;42.98;99496.44;2092148;28;19956;-43
2022/07/29 01:49:15;;;;;;;;;;;;;;;26.16;43.15;99494.53;2092530;28;19920;-43
2022/07/29 01:50:17;;;;;;;;;;;;;;;26.16;43.12;99498.13;2092351;28;19955;-44
2022/07/29 01:51:17;;;;;;;;;;;;;;;26.15;42.89;99495.59;2092056;28;19948;-44
2022/07/29 01:52:42;;;;;;;;;;;;;;;26.15;43.13;99493.69;2093983;28;19916;-45
2022/07/29 01:53:48;;;;;;;;;;;;;;;26.15;42.85;99498.34;2093314;28;19938;-43
2022/07/29 01:54:54;;;;;;;;;;;;;;;26.16;42.91;99505.56;2091185;28;19912;-44
2022/07/29 01:55:57;;;;;;;;;;;;;;;26.16;42.84;99505.56;2094512;28;19928;-43
2022/07/29 01:56:58;;;;;;;;;;;;;;;26.16;43.12;99508.31;2092891;28;20378;-44
2022/07/29 01:58:00;;;;;;;;;;;;;;;26.17;42.92;99515.56;2092110;28;20003;-44
2022/07/29 01:59:02;;;;;;;;;;;;;;;26.17;42.88;99515.56;2092132;28;19926;-44
2022/07/29 02:00:04;;;;;;;;;;;;;;;26.17;43.06;99515.56;2090627;28;19943;-43
2022/07/29 02:01:05;;;;;;;;;;;;;;;26.17;42.93;99526.63;2084704;28;19970;-43
2022/07/29 02:02:08;;;;;;;;;;;;;;;26.17;43.03;99512.81;2084215;28;20313;-43
2022/07/29 02:03:10;;;;;;;;;;;;;;;26.17;42.99;99515.56;2092573;28;19922;-43
2022/07/29 02:04:12;;;;;;;;;;;;;;;26.17;43.04;99504.53;2093671;28;20677;-43
2022/07/29 02:05:14;;;;;;;;;;;;;;;26.17;42.89;99510.88;2087168;28;20315;-44
2022/07/29 02:06:17;;;;;;;;;;;;;;;26.17;42.75;99510.03;2090231;28;20039;-44
2022/07/29 02:07:19;;;;;;;;;;;;;;;26.17;43.05;99507.28;2093816;28;20007;-43
2022/07/29 02:08:21;;;;;;;;;;;;;;;26.16;43.17;99509.16;2091280;28;20230;-44
2022/07/29 02:09:23;;;;;;;;;;;;;;;26.16;42.85;99502.81;2089819;28;20272;-43
2022/07/29 02:10:26;;;;;;;;;;;;;;;26.17;42.89;99499.00;2094070;28;19916;-45
2022/07/29 02:11:26;;;;;;;;;;;;;;;26.16;42.91;99497.28;2082708;28;19916;-43
2022/07/29 02:12:28;;;;;;;;;;;;;;;26.16;42.76;99503.66;2084223;28;19923;-43
2022/07/29 02:13:29;;;;;;;;;;;;;;;26.15;42.98;99501.97;2092936;28;19929;-44
2022/07/29 02:14:33;;;;;;;;;;;;;;;26.16;42.93;99494.53;2077832;28;20203;-44
2022/07/29 02:15:34;;;;;;;;;;;;;;;26.15;42.95;99496.44;2093473;28;20015;-43
2022/07/29 02:16:36;;;;;;;;;;;;;;;26.15;42.96;99490.06;2098236;28;19912;-43
2022/07/29 02:17:51;;;;;;;;;;;;;;;26.16;42.85;99502.81;2096614;28;19915;-43
2022/07/29 02:18:53;;;;;;;;;;;;;;;26.15;42.97;99501.13;2096326;28;20523;-43
2022/07/29 02:19:56;;;;;;;;;;;;;;;26.16;43.03;99508.31;2095313;28;20282;-43
2022/07/29 02:20:58;;;;;;;;;;;;;;;26.15;43.11;99501.13;2096897;28;20554;-44
2022/07/29 02:21:59;;;;;;;;;;;;;;;26.15;43.18;99501.13;2094949;28;20398;-43
2022/07/29 02:23:00;;;;;;;;;;;;;;;26.16;42.93;99497.28;2096503;28;19908;-44
2022/07/29 02:24:01;;;;;;;;;;;;;;;26.15;43.29;99492.81;2100421;28;19916;-44
2022/07/29 02:25:02;;;;;;;;;;;;;;;26.15;42.96;99487.31;2102231;28;19915;-43
2022/07/29 02:26:02;;;;;;;;;;;;;;;26.15;43.09;99501.13;2099632;28;20035;-43
2022/07/29 02:27:03;;;;;;;;;;;;;;;26.14;43.09;99499.41;2099540;28;19914;-44
2022/07/29 02:28:05;;;;;;;;;;;;;;;26.14;43.26;99496.63;2094297;28;20019;-44
2022/07/29 02:29:06;;;;;;;;;;;;;;;26.14;43.02;99504.91;2101182;28;20010;-43
2022/07/29 02:30:07;;;;;;;;;;;;;;;26.14;43.20;99507.69;2099007;28;20600;-43
2022/07/29 02:31:09;;;;;;;;;;;;;;;26.14;43.11;99513.22;2102252;28;20223;-43
2022/07/29 02:32:10;;;;;;;;;;;;;;;26.13;43.37;99515.13;2099849;28;19970;-44
2022/07/29 02:33:13;;;;;;;;;;;;;;;26.12;43.35;99516.19;2101590;28;20208;-43
2022/07/29 02:34:15;;;;;;;;;;;;;;;26.14;43.37;99513.22;2097438;28;20278;-43
2022/07/29 02:35:16;;;;;;;;;;;;;;;26.13;43.20;99515.13;2097880;28;19923;-44
2022/07/29 02:36:17;;;;;;;;;;;;;;;26.13;43.44;99506.00;2094036;28;19915;-43
2022/07/29 02:37:18;;;;;;;;;;;;;;;26.12;43.16;99504.31;2095504;28;19965;-43
2022/07/29 02:39:40;;;;;;;;;;;;;;;26.13;43.15;99503.22;2097102;28;20014;-44
2022/07/29 02:40:42;;;;;;;;;;;;;;;26.13;43.09;99492.19;2104391;28;19982;-43
2022/07/29 02:41:50;;;;;;;;;;;;;;;26.12;43.36;99491.34;2101791;28;20230;-46
2022/07/29 02:42:51;;;;;;;;;;;;;;;26.12;43.37;99496.03;2101428;28;20370;-43
2022/07/29 02:43:54;;;;;;;;;;;;;;;26.12;43.35;99490.50;2101316;28;20108;-43
2022/07/29 02:44:55;;;;;;;;;;;;;;;26.13;43.27;99494.94;2100839;28;19936;-45
2022/07/29 02:45:56;;;;;;;;;;;;;;;26.14;43.09;99493.88;2101677;28;20635;-44
2022/07/29 02:47:32;;;;;;;;;;;;;;;26.12;43.28;99493.25;2098946;28;20135;-44
2022/07/29 02:48:36;;;;;;;;;;;;;;;26.13;43.09;99493.03;2065957;28;20420;-44
2022/07/29 02:49:38;;;;;;;;;;;;;;;26.13;43.27;99497.72;2060856;28;20386;-44
2022/07/29 02:50:44;;;;;;;;;;;;;;;26.13;43.34;99492.19;2070850;28;19964;-47
2022/07/29 02:52:01;;;;;;;;;;;;;;;26.13;43.28;99504.06;2099224;28;20667;-44
2022/07/29 02:53:21;;;;;;;;;;;;;;;26.13;43.04;99504.06;2099471;28;19915;-43
2022/07/29 02:54:33;;;;;;;;;;;;;;;26.13;43.01;99508.75;2094050;28;19908;-44
2022/07/29 02:55:40;;;;;;;;;;;;;;;26.14;43.08;99515.97;2100470;28;19919;-44
2022/07/29 02:56:40;;;;;;;;;;;;;;;26.13;43.17;99511.53;2100202;28;19926;-44
2022/07/29 02:57:42;;;;;;;;;;;;;;;26.13;43.31;99503.22;2101932;28;20395;-44
2022/07/29 02:58:46;;;;;;;;;;;;;;;26.13;43.10;99506.84;2101997;28;20139;-44
2022/07/29 02:59:49;;;;;;;;;;;;;;;26.14;43.04;99513.22;2100244;28;20214;-43
2022/07/29 03:00:51;;;;;;;;;;;;;;;26.13;43.38;99508.75;2097976;28;19916;-44
2022/07/29 03:01:52;;;;;;;;;;;;;;;26.13;43.42;99508.75;2097195;28;19985;-43
2022/07/29 03:02:53;;;;;;;;;;;;;;;26.13;43.16;99515.13;2101007;28;19915;-44
2022/07/29 03:03:54;;;;;;;;;;;;;;;26.13;43.15;99514.28;2099326;28;20436;-43
2022/07/29 03:04:55;;;;;;;;;;;;;;;26.13;43.14;99517.03;2101795;28;19915;-43
2022/07/29 03:05:56;;;;;;;;;;;;;;;26.12;43.44;99507.06;2098770;28;20233;-44
2022/07/29 03:06:58;;;;;;;;;;;;;;;26.12;43.34;99512.59;2097065;28;19923;-43
2022/07/29 03:08:03;;;;;;;;;;;;;;;26.12;43.48;99518.97;2101310;28;19926;-43
2022/07/29 03:09:05;;;;;;;;;;;;;;;26.12;43.49;99515.34;2097958;28;20486;-43
2022/07/29 03:10:06;;;;;;;;;;;;;;;26.11;43.61;99510.88;2098256;28;20039;-44
2022/07/29 03:11:08;;;;;;;;;;;;;;;26.11;43.65;99513.63;2100424;28;20280;-43
2022/07/29 03:12:08;;;;;;;;;;;;;;;26.11;43.43;99519.16;2098402;28;19931;-44
2022/07/29 03:13:09;;;;;;;;;;;;;;;26.11;43.58;99519.16;2100983;28;20851;-48
2022/07/29 03:14:09;;;;;;;;;;;;;;;26.11;43.47;99521.91;2099285;28;19908;-45
2022/07/29 03:15:10;;;;;;;;;;;;;;;26.09;43.50;99520.22;2096587;28;19923;-44
2022/07/29 03:16:11;;;;;;;;;;;;;;;26.10;43.33;99526.59;2093834;28;20821;-43
2022/07/29 03:17:11;;;;;;;;;;;;;;;26.09;43.35;99517.47;2090614;28;20424;-44
2022/07/29 03:18:12;;;;;;;;;;;;;;;26.10;43.65;99523.84;2093629;28;19916;-43
2022/07/29 03:19:13;;;;;;;;;;;;;;;26.11;43.38;99524.69;2092615;28;19916;-43
2022/07/29 03:20:13;;;;;;;;;;;;;;;26.08;43.38;99518.50;2090953;28;19916;-45
2022/07/29 03:21:14;;;;;;;;;;;;;;;26.09;43.72;99520.22;2091488;28;19927;-44
2022/07/29 03:22:14;;;;;;;;;;;;;;;26.09;43.52;99524.88;2081179;28;20571;-44
2022/07/29 03:23:19;;;;;;;;;;;;;;;26.11;43.50;99527.44;2084361;28;19915;-43
2022/07/29 03:24:30;;;;;;;;;;;;;;;26.08;43.58;99518.50;2087114;28;19924;-44
2022/07/29 03:25:30;;;;;;;;;;;;;;;26.08;43.41;99524.03;2092983;28;19916;-44
2022/07/29 03:26:31;;;;;;;;;;;;;;;26.09;43.53;99522.13;2092807;28;20420;-45
2022/07/29 03:27:32;;;;;;;;;;;;;;;26.08;43.42;99518.50;2093231;28;19908;-43
2022/07/29 03:28:32;;;;;;;;;;;;;;;26.10;43.61;99515.56;2093839;28;19908;-43
2022/07/29 03:29:33;;;;;;;;;;;;;;;26.09;43.65;99517.47;2094217;28;20326;-44
2022/07/29 03:30:33;;;;;;;;;;;;;;;26.09;43.36;99514.72;2092266;28;19923;-43
2022/07/29 03:31:33;;;;;;;;;;;;;;;26.10;43.39;99515.56;2092499;28;19920;-44
2022/07/29 03:32:34;;;;;;;;;;;;;;;26.09;43.59;99523.00;2092329;28;20660;-43
2022/07/29 03:33:34;;;;;;;;;;;;;;;26.09;43.40;99520.22;2093562;28;20738;-44
2022/07/29 03:34:36;;;;;;;;;;;;;;;26.09;43.40;99517.47;2094698;28;19908;-43
2022/07/29 03:35:36;;;;;;;;;;;;;;;26.09;43.47;99520.22;2083409;28;19960;-44
2022/07/29 03:36:37;;;;;;;;;;;;;;;26.10;43.42;99521.06;2084299;28;19944;-44
2022/07/29 03:37:37;;;;;;;;;;;;;;;26.10;43.38;99521.06;2093844;28;19965;-44
2022/07/29 03:38:39;;;;;;;;;;;;;;;26.09;43.51;99517.47;2091010;28;19916;-44
2022/07/29 03:39:41;;;;;;;;;;;;;;;26.11;43.29;99519.16;2076208;28;19923;-43
2022/07/29 03:40:56;;;;;;;;;;;;;;;26.11;43.33;99521.91;2078850;28;19955;-43
2022/07/29 03:41:58;;;;;;;;;;;;;;;26.09;43.36;99522.13;2089664;28;19935;-44
2022/07/29 03:42:59;;;;;;;;;;;;;;;26.09;43.59;99531.28;2090935;28;19923;-44
2022/07/29 03:43:59;;;;;;;;;;;;;;;26.10;43.33;99534.88;2092848;28;20328;-43
2022/07/29 03:45:01;;;;;;;;;;;;;;;26.09;43.50;99531.28;2089750;28;19943;-46
2022/07/29 03:46:04;;;;;;;;;;;;;;;26.09;43.60;99531.28;2091489;28;19914;-44
2022/07/29 03:47:06;;;;;;;;;;;;;;;26.11;43.54;99535.72;2085162;28;20282;-44
2022/07/29 03:48:08;;;;;;;;;;;;;;;26.09;43.42;99531.28;2083341;28;19991;-44
2022/07/29 03:49:10;;;;;;;;;;;;;;;26.09;43.44;99536.81;2091644;28;20007;-44
2022/07/29 03:50:13;;;;;;;;;;;;;;;26.09;43.70;99538.69;2089964;28;19927;-43
2022/07/29 03:51:13;;;;;;;;;;;;;;;26.09;43.58;99542.31;2089184;28;20677;-44
2022/07/29 03:52:13;;;;;;;;;;;;;;;26.08;43.76;99540.59;2094341;28;20509;-43
2022/07/29 03:53:14;;;;;;;;;;;;;;;26.09;43.60;99541.44;2091468;28;20488;-44
2022/07/29 03:54:14;;;;;;;;;;;;;;;26.08;43.62;99537.00;2083605;28;19912;-43
2022/07/29 03:55:15;;;;;;;;;;;;;;;26.08;43.61;99534.25;2083414;28;19921;-44
2022/07/29 03:56:16;;;;;;;;;;;;;;;26.07;43.93;99538.91;2089847;28;20348;-44
2022/07/29 03:57:18;;;;;;;;;;;;;;;26.07;43.62;99538.91;2091739;28;19943;-43
2022/07/29 03:58:19;;;;;;;;;;;;;;;26.06;43.58;99539.97;2091175;28;20468;-45
2022/07/29 03:59:20;;;;;;;;;;;;;;;26.07;43.90;99549.13;2089451;28;20013;-44
2022/07/29 04:00:21;;;;;;;;;;;;;;;26.07;43.77;99538.91;2086006;28;19916;-46
2022/07/29 04:01:22;;;;;;;;;;;;;;;26.07;43.88;99543.59;2091641;28;19920;-43
2022/07/29 04:02:23;;;;;;;;;;;;;;;26.07;43.73;99543.59;2083397;28;19937;-44
2022/07/29 04:03:23;;;;;;;;;;;;;;;26.06;43.86;99542.72;2079312;28;19916;-43
2022/07/29 04:04:24;;;;;;;;;;;;;;;26.06;43.98;99537.19;2090190;28;20228;-43
2022/07/29 04:05:24;;;;;;;;;;;;;;;26.06;43.98;99539.97;2094854;28;19916;-44
2022/07/29 04:06:25;;;;;;;;;;;;;;;26.05;43.67;99541.03;2094417;28;19923;-43
2022/07/29 04:07:26;;;;;;;;;;;;;;;26.06;43.75;99541.88;2092057;28;20369;-44
2022/07/29 04:08:26;;;;;;;;;;;;;;;26.06;43.94;99541.88;2094913;28;19915;-44
2022/07/29 04:09:26;;;;;;;;;;;;;;;26.06;43.74;99551.00;2093893;28;19968;-43
2022/07/29 04:10:27;;;;;;;;;;;;;;;26.06;43.67;99551.00;2093197;28;20630;-45
2022/07/29 04:11:27;;;;;;;;;;;;;;;26.06;43.97;99542.72;2094178;28;19927;-43
2022/07/29 04:12:27;;;;;;;;;;;;;;;26.06;43.62;99542.72;2092323;28;19908;-43
2022/07/29 04:13:28;;;;;;;;;;;;;;;26.06;43.67;99541.88;2090562;28;19931;-43
2022/07/29 04:14:28;;;;;;;;;;;;;;;26.07;43.90;99541.69;2093634;28;20010;-43
2022/07/29 04:15:29;;;;;;;;;;;;;;;26.06;43.78;99542.72;2093028;28;19967;-43
2022/07/29 04:16:29;;;;;;;;;;;;;;;26.06;43.62;99548.25;2086489;28;20121;-46
2022/07/29 04:17:30;;;;;;;;;;;;;;;26.06;43.85;99553.78;2082756;28;20031;-44
2022/07/29 04:18:30;;;;;;;;;;;;;;;26.07;43.60;99561.00;2086987;28;19917;-43
2022/07/29 04:19:32;;;;;;;;;;;;;;;26.07;43.56;99560.16;2093936;28;19923;-43
2022/07/29 04:20:32;;;;;;;;;;;;;;;26.07;43.55;99561.00;2092059;28;19917;-43
2022/07/29 04:21:36;;;;;;;;;;;;;;;26.07;43.55;99555.50;2096245;28;19908;-44
2022/07/29 04:22:37;;;;;;;;;;;;;;;26.07;43.66;99551.88;2091933;28;19939;-44
2022/07/29 04:23:37;;;;;;;;;;;;;;;26.07;43.62;99544.44;2093812;28;19955;-43
2022/07/29 04:24:37;;;;;;;;;;;;;;;26.06;43.61;99548.25;2094522;28;19963;-44
2022/07/29 04:25:41;;;;;;;;;;;;;;;26.06;43.55;99545.47;2094138;28;20849;-43
2022/07/29 04:26:41;;;;;;;;;;;;;;;26.06;43.90;99545.47;2084196;28;19961;-43
2022/07/29 04:27:59;;;;;;;;;;;;;;;26.06;43.63;99551.00;2085859;28;20652;-43
2022/07/29 04:29:00;;;;;;;;;;;;;;;26.07;43.75;99544.44;2094369;28;19916;-43
2022/07/29 04:30:00;;;;;;;;;;;;;;;26.07;43.67;99538.06;2093046;28;19981;-44
2022/07/29 04:31:01;;;;;;;;;;;;;;;26.07;43.89;99538.91;2094851;28;20342;-44
2022/07/29 04:32:01;;;;;;;;;;;;;;;26.07;43.89;99538.06;2092364;28;20020;-43
2022/07/29 04:33:03;;;;;;;;;;;;;;;26.06;43.68;99537.19;2093233;28;20622;-45
2022/07/29 04:34:03;;;;;;;;;;;;;;;26.07;43.73;99547.22;2096469;28;19939;-44
2022/07/29 04:35:03;;;;;;;;;;;;;;;26.06;43.91;99545.47;2092867;28;19920;-44
2022/07/29 04:36:04;;;;;;;;;;;;;;;26.05;43.71;99546.56;2093832;28;19908;-43
2022/07/29 04:37:05;;;;;;;;;;;;;;;26.05;43.68;99552.09;2086286;28;20054;-43
2022/07/29 04:38:06;;;;;;;;;;;;;;;26.06;43.94;99550.16;2083760;28;19917;-43
2022/07/29 04:39:06;;;;;;;;;;;;;;;26.05;43.74;99552.09;2095856;28;19908;-43
2022/07/29 04:40:07;;;;;;;;;;;;;;;26.05;43.99;99549.31;2094140;28;19920;-43
2022/07/29 04:41:08;;;;;;;;;;;;;;;26.05;44.00;99549.31;2093327;28;19924;-43
2022/07/29 04:42:08;;;;;;;;;;;;;;;26.04;43.95;99555.91;2096082;28;19920;-43
2022/07/29 04:43:08;;;;;;;;;;;;;;;26.04;44.08;99541.22;2091989;28;19919;-43
2022/07/29 04:44:09;;;;;;;;;;;;;;;26.04;43.88;99538.47;2092791;28;19916;-43
2022/07/29 04:45:10;;;;;;;;;;;;;;;26.04;43.86;99552.28;2082601;28;19952;-43
2022/07/29 04:46:10;;;;;;;;;;;;;;;26.04;43.92;99552.28;2079682;28;20247;-44
2022/07/29 04:47:10;;;;;;;;;;;;;;;26.03;43.92;99554.19;2094439;28;19916;-43
2022/07/29 04:48:11;;;;;;;;;;;;;;;26.03;43.85;99559.72;2093077;28;19916;-44
2022/07/29 04:49:11;;;;;;;;;;;;;;;26.03;44.10;99565.25;2092621;28;19998;-43
2022/07/29 04:50:11;;;;;;;;;;;;;;;26.03;44.12;99570.75;2092161;28;20225;-43
2022/07/29 04:51:12;;;;;;;;;;;;;;;26.03;44.17;99576.28;2092114;28;20014;-43
2022/07/29 04:52:12;;;;;;;;;;;;;;;26.03;43.93;99579.06;2093512;28;19916;-43
2022/07/29 04:53:12;;;;;;;;;;;;;;;26.04;44.22;99577.13;2082740;28;19920;-43
2022/07/29 04:54:13;;;;;;;;;;;;;;;26.04;44.02;99582.66;2083563;28;19938;-43
2022/07/29 04:55:13;;;;;;;;;;;;;;;26.03;44.08;99584.56;2095072;28;19965;-43
2022/07/29 04:56:14;;;;;;;;;;;;;;;26.04;44.17;99594.59;2088525;28;19923;-43
2022/07/29 04:57:15;;;;;;;;;;;;;;;26.03;44.01;99592.84;2086680;28;20255;-43
2022/07/29 04:58:15;;;;;;;;;;;;;;;26.04;43.95;99600.09;2092103;28;19996;-43
2022/07/29 04:59:16;;;;;;;;;;;;;;;26.03;44.15;99595.63;2092276;28;19916;-43
2022/07/29 05:00:16;;;;;;;;;;;;;;;26.04;43.90;99591.81;2078190;28;19909;-43
2022/07/29 05:01:17;;;;;;;;;;;;;;;26.04;43.85;99593.72;2082122;28;20392;-43
2022/07/29 05:02:17;;;;;;;;;;;;;;;26.03;43.96;99592.84;2093954;28;19919;-46
2022/07/29 05:03:18;;;;;;;;;;;;;;;26.03;44.00;99598.38;2095208;28;19916;-43
2022/07/29 05:04:18;;;;;;;;;;;;;;;26.04;43.99;99608.38;2089356;28;19923;-44
2022/07/29 05:05:18;;;;;;;;;;;;;;;26.03;44.01;99603.91;2091134;28;19939;-43
2022/07/29 05:06:19;;;;;;;;;;;;;;;26.03;44.20;99612.19;2092438;28;20019;-43
2022/07/29 05:07:19;;;;;;;;;;;;;;;26.03;43.93;99606.66;2088327;28;20015;-43
2022/07/29 05:08:19;;;;;;;;;;;;;;;26.04;44.25;99605.63;2092550;28;20014;-42
2022/07/29 05:09:20;;;;;;;;;;;;;;;26.03;44.17;99609.44;2090451;28;19973;-42
2022/07/29 05:10:20;;;;;;;;;;;;;;;26.04;43.95;99616.69;2084522;28;20297;-42
2022/07/29 05:11:21;;;;;;;;;;;;;;;26.02;44.16;99613.25;2084864;28;20701;-42
2022/07/29 05:12:22;;;;;;;;;;;;;;;26.04;44.21;99610.28;2094189;28;19920;-42
2022/07/29 05:13:22;;;;;;;;;;;;;;;26.02;44.27;99613.25;2083095;28;20016;-42
2022/07/29 05:14:22;;;;;;;;;;;;;;;26.02;44.08;99618.78;2083117;28;19917;-44
2022/07/29 05:15:23;;;;;;;;;;;;;;;26.02;44.32;99621.56;2086735;28;19931;-42
2022/07/29 05:16:23;;;;;;;;;;;;;;;26.02;44.27;99629.84;2093216;28;19950;-42
2022/07/29 05:17:24;;;;;;;;;;;;;;;26.02;44.09;99629.84;2092125;28;19927;-42
2022/07/29 05:18:25;;;;;;;;;;;;;;;26.01;44.05;99639.16;2093709;28;19971;-43
2022/07/29 05:19:25;;;;;;;;;;;;;;;26.01;44.26;99639.16;2093438;28;20558;-42
2022/07/29 05:20:29;;;;;;;;;;;;;;;26.01;44.15;99639.16;2090716;28;20226;-43
2022/07/29 05:21:29;;;;;;;;;;;;;;;26.00;44.20;99631.94;2085844;28;19958;-42
2022/07/29 05:22:29;;;;;;;;;;;;;;;26.00;44.20;99637.47;2087621;28;20015;-43
2022/07/29 05:23:30;;;;;;;;;;;;;;;26.00;44.49;99637.47;2084492;28;20102;-42
2022/07/29 05:24:30;;;;;;;;;;;;;;;26.01;44.22;99639.16;2086711;28;19939;-44
2022/07/29 05:25:31;;;;;;;;;;;;;;;26.01;44.23;99639.16;2082452;28;19916;-43
2022/07/29 05:26:31;;;;;;;;;;;;;;;25.99;44.55;99635.78;2084448;28;20417;-42